^^
Saratoga-Weather Station Historical Data
 
Daily Summary for January 23, 2020 Units:  Metric    English   Both
Daily Weekly Monthly Yearly Custom
  Current: High: Low: Average:
Temperature: 15.0 °C 15.0 °C 6.8 °C 8.6 °C
Dew Point: 10.8 °C 11.2 °C 5.9 °C 7.6 °C
Humidity: 76% 97% 75% 94%
Wind Speed: 3.2km/h 4.8km/h 0.0km/h 0.4km/h
Wind Gust: 6.4km/h 9.7km/h - -
WindNE - - South
Pressure: 1021.3 hPa 1024.3 hPa 1021.3 hPa -
Precipitation: 0.0 mm      
Historical Graphs
 
 
Tabular Data for January 23, 2020
Time Temperature Dew Point Pressure Wind Wind Speed Wind Gust Humidity Rainfall Rate (Hourly) solar
00:00 8.3 °C 7.1 °C 1024.3 hPa Calm     92% 0.0 mm 0.00 W/m2
00:05 8.2 °C 7.0 °C 1024.3 hPa Calm     92% 0.0 mm 0.00 W/m2
00:10 8.2 °C 7.0 °C 1024.3 hPa Calm     92% 0.0 mm 0.00 W/m2
00:15 8.2 °C 6.9 °C 1024.2 hPa Calm     92% 0.0 mm 0.00 W/m2
00:20 8.2 °C 6.9 °C 1024.2 hPa Calm     92% 0.0 mm 0.00 W/m2
00:25 8.1 °C 6.8 °C 1024.2 hPa Calm     92% 0.0 mm 0.00 W/m2
00:30 8.1 °C 6.8 °C 1024.1 hPa Calm     92% 0.0 mm 0.00 W/m2
00:35 8.1 °C 6.8 °C 1024.0 hPa Calm     92% 0.0 mm 0.00 W/m2
00:40 8.0 °C 6.8 °C 1024.0 hPa Calm     92% 0.0 mm 0.00 W/m2
00:45 8.0 °C 6.9 °C 1024.0 hPa Calm     93% 0.0 mm 0.00 W/m2
00:50 8.0 °C 6.9 °C 1024.0 hPa Calm     93% 0.0 mm 0.00 W/m2
00:55 7.9 °C 6.8 °C 1023.9 hPa Calm     93% 0.0 mm 0.00 W/m2
01:00 7.9 °C 6.8 °C 1023.9 hPa Calm     93% 0.0 mm 0.00 W/m2
01:05 7.9 °C 6.8 °C 1023.8 hPa Calm     93% 0.0 mm 0.00 W/m2
01:10 7.8 °C 6.8 °C 1023.8 hPa Calm     93% 0.0 mm 0.00 W/m2
01:15 7.8 °C 6.7 °C 1023.7 hPa Calm     93% 0.0 mm 0.00 W/m2
01:20 7.8 °C 6.7 °C 1023.7 hPa Calm     93% 0.0 mm 0.00 W/m2
01:25 7.8 °C 6.7 °C 1023.7 hPa Calm     93% 0.0 mm 0.00 W/m2
01:30 7.8 °C 6.7 °C 1023.7 hPa Calm     93% 0.0 mm 0.00 W/m2
01:35 7.7 °C 6.7 °C 1023.7 hPa Calm     93% 0.0 mm 0.00 W/m2
01:40 7.7 °C 6.6 °C 1023.6 hPa Calm     93% 0.0 mm 0.00 W/m2
01:45 7.7 °C 6.6 °C 1023.7 hPa Calm     93% 0.0 mm 0.00 W/m2
01:50 7.6 °C 6.6 °C 1023.7 hPa Calm     93% 0.0 mm 0.00 W/m2
01:55 7.6 °C 6.6 °C 1023.8 hPa Calm     93% 0.0 mm 0.00 W/m2
02:00 7.5 °C 6.4 °C 1023.9 hPa Calm     93% 0.0 mm 0.00 W/m2
02:05 7.5 °C 6.4 °C 1023.8 hPa Calm     93% 0.0 mm 0.00 W/m2
02:10 7.4 °C 6.4 °C 1023.8 hPa Calm     93% 0.0 mm 0.00 W/m2
02:15 7.4 °C 6.4 °C 1023.7 hPa Calm     93% 0.0 mm 0.00 W/m2
02:20 7.3 °C 6.3 °C 1023.8 hPa Calm     93% 0.0 mm 0.00 W/m2
02:25 7.3 °C 6.3 °C 1023.8 hPa Calm     93% 0.0 mm 0.00 W/m2
02:30 7.3 °C 6.4 °C 1023.8 hPa Calm     94% 0.0 mm 0.00 W/m2
02:35 7.3 °C 6.4 °C 1023.8 hPa Calm     94% 0.0 mm 0.00 W/m2
02:40 7.3 °C 6.4 °C 1023.8 hPa Calm     94% 0.0 mm 0.00 W/m2
02:45 7.3 °C 6.4 °C 1023.9 hPa Calm     94% 0.0 mm 0.00 W/m2
02:50 7.2 °C 6.3 °C 1023.9 hPa Calm     94% 0.0 mm 0.00 W/m2
02:55 7.2 °C 6.3 °C 1023.8 hPa Calm     94% 0.0 mm 0.00 W/m2
03:00 7.2 °C 6.2 °C 1023.7 hPa Calm     94% 0.0 mm 0.00 W/m2
03:05 7.2 °C 6.2 °C 1023.7 hPa Calm     94% 0.0 mm 0.00 W/m2
03:10 7.1 °C 6.2 °C 1023.7 hPa Calm     94% 0.0 mm 0.00 W/m2
03:15 7.1 °C 6.2 °C 1023.7 hPa Calm     94% 0.0 mm 0.00 W/m2
03:20 7.1 °C 6.2 °C 1023.7 hPa Calm     94% 0.0 mm 0.00 W/m2
03:25 7.0 °C 6.1 °C 1023.7 hPa Calm     94% 0.0 mm 0.00 W/m2
03:30 7.0 °C 6.1 °C 1023.7 hPa Calm     94% 0.0 mm 0.00 W/m2
03:35 6.9 °C 6.1 °C 1023.7 hPa Calm     94% 0.0 mm 0.00 W/m2
03:40 6.9 °C 6.1 °C 1023.7 hPa Calm     94% 0.0 mm 0.00 W/m2
03:45 6.9 °C 6.1 °C 1023.6 hPa Calm     94% 0.0 mm 0.00 W/m2
03:50 6.8 °C 5.9 °C 1023.6 hPa Calm     94% 0.0 mm 0.00 W/m2
03:55 6.9 °C 6.1 °C 1023.4 hPa Calm     94% 0.0 mm 0.00 W/m2
04:00 6.9 °C 6.1 °C 1023.3 hPa Calm     94% 0.0 mm 0.00 W/m2
04:05 6.9 °C 6.1 °C 1023.4 hPa Calm     94% 0.0 mm 0.00 W/m2
04:10 6.9 °C 6.1 °C 1023.5 hPa Calm     94% 0.0 mm 0.00 W/m2
04:15 6.9 °C 6.1 °C 1023.3 hPa Calm     94% 0.0 mm 0.00 W/m2
04:20 6.9 °C 6.1 °C 1023.2 hPa Calm     94% 0.0 mm 0.00 W/m2
04:25 6.9 °C 6.1 °C 1023.1 hPa Calm     94% 0.0 mm 0.00 W/m2
04:30 6.9 °C 6.1 °C 1023.1 hPa Calm     94% 0.0 mm 0.00 W/m2
04:35 6.9 °C 6.2 °C 1023.2 hPa Calm     95% 0.0 mm 0.00 W/m2
04:40 6.9 °C 6.2 °C 1023.1 hPa Calm     95% 0.0 mm 0.00 W/m2
04:45 6.9 °C 6.2 °C 1023.0 hPa Calm     95% 0.0 mm 0.00 W/m2
04:50 7.0 °C 6.3 °C 1023.0 hPa Calm     95% 0.0 mm 0.00 W/m2
04:55 7.0 °C 6.3 °C 1023.0 hPa Calm     95% 0.0 mm 0.00 W/m2
05:00 7.0 °C 6.3 °C 1023.1 hPa Calm     95% 0.0 mm 0.00 W/m2
05:05 7.1 °C 6.3 °C 1023.0 hPa Calm     95% 0.0 mm 0.00 W/m2
05:10 7.1 °C 6.4 °C 1022.8 hPa Calm     95% 0.0 mm 0.00 W/m2
05:15 7.1 °C 6.4 °C 1022.7 hPa Calm     95% 0.0 mm 0.00 W/m2
05:20 7.2 °C 6.4 °C 1022.8 hPa Calm     95% 0.0 mm 0.00 W/m2
05:25 7.2 °C 6.4 °C 1022.9 hPa Calm     95% 0.0 mm 0.00 W/m2
05:30 7.2 °C 6.4 °C 1022.8 hPa Calm     95% 0.0 mm 0.00 W/m2
05:35 7.2 °C 6.4 °C 1022.9 hPa Calm     95% 0.0 mm 0.00 W/m2
05:40 7.2 °C 6.4 °C 1022.9 hPa Calm     95% 0.0 mm 0.00 W/m2
05:45 7.2 °C 6.4 °C 1022.8 hPa Calm     95% 0.0 mm 0.00 W/m2
05:50 7.2 °C 6.4 °C 1023.1 hPa Calm     95% 0.0 mm 0.00 W/m2
05:55 7.2 °C 6.4 °C 1023.1 hPa Calm     95% 0.0 mm 0.00 W/m2
06:00 7.2 °C 6.4 °C 1023.2 hPa Calm     95% 0.0 mm 0.00 W/m2
06:05 7.2 °C 6.4 °C 1023.2 hPa Calm     95% 0.0 mm 0.00 W/m2
06:10 7.2 °C 6.4 °C 1023.2 hPa Calm     95% 0.0 mm 0.00 W/m2
06:15 7.2 °C 6.4 °C 1023.2 hPa Calm     95% 0.0 mm 0.00 W/m2
06:20 7.2 °C 6.4 °C 1023.2 hPa Calm     95% 0.0 mm 0.00 W/m2
06:25 7.2 °C 6.4 °C 1023.3 hPa Calm     95% 0.0 mm 0.00 W/m2
06:30 7.2 °C 6.4 °C 1023.2 hPa Calm     95% 0.0 mm 0.00 W/m2
06:35 7.2 °C 6.4 °C 1023.2 hPa Calm     95% 0.0 mm 0.00 W/m2
06:40 7.3 °C 6.5 °C 1023.4 hPa Calm     95% 0.0 mm 0.00 W/m2
06:45 7.3 °C 6.5 °C 1023.4 hPa Calm     95% 0.0 mm 0.00 W/m2
06:50 7.3 °C 6.6 °C 1023.4 hPa Calm     95% 0.0 mm 0.00 W/m2
06:55 7.3 °C 6.5 °C 1023.3 hPa Calm     95% 0.0 mm 0.00 W/m2
07:00 7.3 °C 6.6 °C 1023.4 hPa Calm     95% 0.0 mm 0.00 W/m2
07:05 7.3 °C 6.6 °C 1023.6 hPa Calm     95% 0.0 mm 0.00 W/m2
07:10 7.3 °C 6.6 °C 1023.5 hPa Calm     95% 0.0 mm 0.00 W/m2
07:15 7.3 °C 6.6 °C 1023.3 hPa Calm     95% 0.0 mm 0.00 W/m2
07:20 7.3 °C 6.6 °C 1023.4 hPa Calm     95% 0.0 mm 0.00 W/m2
07:25 7.4 °C 6.6 °C 1023.5 hPa Calm     95% 0.0 mm 5.00 W/m2
07:30 7.4 °C 6.7 °C 1023.5 hPa Calm     95% 0.0 mm 7.00 W/m2
07:35 7.4 °C 6.8 °C 1023.4 hPa Calm     96% 0.0 mm 9.00 W/m2
07:40 7.5 °C 6.9 °C 1023.4 hPa Calm     96% 0.0 mm 11.00 W/m2
07:45 7.5 °C 6.9 °C 1023.4 hPa Calm     96% 0.0 mm 21.00 W/m2
07:50 7.6 °C 6.9 °C 1023.2 hPa Calm     96% 0.0 mm 26.00 W/m2
07:55 7.6 °C 7.0 °C 1023.3 hPa Calm     96% 0.0 mm 30.00 W/m2
08:00 7.7 °C 7.1 °C 1023.4 hPa Calm     96% 0.0 mm 33.00 W/m2
08:05 7.7 °C 7.1 °C 1023.4 hPa Calm     96% 0.0 mm 35.00 W/m2
08:10 7.8 °C 7.2 °C 1023.5 hPa Calm     96% 0.0 mm 40.00 W/m2
08:15 7.8 °C 7.2 °C 1023.5 hPa Calm     96% 0.0 mm 42.00 W/m2
08:20 7.8 °C 7.2 °C 1023.6 hPa Calm     96% 0.0 mm 49.00 W/m2
08:25 7.9 °C 7.3 °C 1023.6 hPa Calm     96% 0.0 mm 51.00 W/m2
08:30 7.9 °C 7.3 °C 1023.6 hPa Calm     96% 0.0 mm 172.00 W/m2
08:35 8.0 °C 7.4 °C 1023.7 hPa Calm     96% 0.0 mm 74.00 W/m2
08:40 8.0 °C 7.4 °C 1023.7 hPa Calm     96% 0.0 mm 49.00 W/m2
08:45 8.1 °C 7.4 °C 1023.6 hPa Calm     96% 0.0 mm 46.00 W/m2
08:50 8.1 °C 7.4 °C 1023.5 hPa Calm     96% 0.0 mm 70.00 W/m2
08:55 8.1 °C 7.4 °C 1023.5 hPa Calm     96% 0.0 mm 51.00 W/m2
09:00 8.2 °C 7.6 °C 1023.6 hPa Calm     96% 0.0 mm 60.00 W/m2
09:05 8.2 °C 7.6 °C 1023.7 hPa Calm     96% 0.0 mm 172.00 W/m2
09:10 8.3 °C 7.7 °C 1023.7 hPa Calm     96% 0.0 mm 290.00 W/m2
09:15 8.4 °C 7.8 °C 1023.8 hPa Calm     96% 0.0 mm 273.00 W/m2
09:20 8.6 °C 7.9 °C 1023.8 hPa Calm     96% 0.0 mm 155.00 W/m2
09:25 8.7 °C 8.3 °C 1023.8 hPa Calm     97% 0.0 mm 146.00 W/m2
09:30 9.0 °C 8.6 °C 1023.8 hPa Calm     97% 0.0 mm 143.00 W/m2
09:35 9.2 °C 8.8 °C 1023.7 hPa Calm     97% 0.0 mm 155.00 W/m2
09:40 9.4 °C 8.9 °C 1023.6 hPa Calm     97% 0.0 mm 183.00 W/m2
09:45 9.6 °C 9.1 °C 1023.6 hPa Calm     97% 0.0 mm 192.00 W/m2
09:50 9.7 °C 9.3 °C 1023.7 hPa Calm     97% 0.0 mm 208.00 W/m2
09:55 9.8 °C 9.3 °C 1023.7 hPa Calm     97% 0.0 mm 218.00 W/m2
10:00 9.9 °C 9.5 °C 1023.8 hPa Calm     97% 0.0 mm 211.00 W/m2
10:05 10.2 °C 9.7 °C 1023.8 hPa Calm   3.2 km/h 97% 0.0 mm 201.00 W/m2
10:10 10.3 °C 9.8 °C 1023.8 hPa NNW 1.6 km/h 3.2 km/h 97% 0.0 mm 188.00 W/m2
10:15 10.4 °C 9.9 °C 1023.8 hPa Calm   4.8 km/h 97% 0.0 mm 178.00 W/m2
10:20 10.4 °C 10.0 °C 1023.7 hPa Calm     97% 0.0 mm 174.00 W/m2
10:25 10.5 °C 10.1 °C 1023.8 hPa Calm     97% 0.0 mm 208.00 W/m2
10:30 10.6 °C 9.9 °C 1023.8 hPa Calm     96% 0.0 mm 236.00 W/m2
10:35 10.6 °C 10.0 °C 1023.9 hPa Calm   4.8 km/h 96% 0.0 mm 246.00 W/m2
10:40 10.7 °C 10.1 °C 1023.8 hPa NW 2.3 km/h 5.6 km/h 96% 0.0 mm 276.00 W/m2
10:45 10.8 °C 10.2 °C 1023.7 hPa NNW 3.2 km/h 8.0 km/h 96% 0.0 mm 333.00 W/m2
10:50 10.9 °C 10.3 °C 1023.6 hPa NNW 1.6 km/h 4.8 km/h 96% 0.0 mm 537.00 W/m2
10:55 11.1 °C 10.5 °C 1023.7 hPa NNE 1.6 km/h 4.8 km/h 96% 0.0 mm 378.00 W/m2
11:00 11.2 °C 10.6 °C 1023.6 hPa NE 3.2 km/h 8.0 km/h 96% 0.0 mm 229.00 W/m2
11:05 11.4 °C 10.8 °C 1023.5 hPa NE 1.6 km/h 8.0 km/h 96% 0.0 mm 209.00 W/m2
11:10 11.4 °C 10.8 °C 1023.3 hPa Calm   4.8 km/h 96% 0.0 mm 549.00 W/m2
11:15 11.6 °C 10.9 °C 1023.2 hPa NE 3.2 km/h 9.7 km/h 96% 0.0 mm 545.00 W/m2
11:20 11.7 °C 10.9 °C 1023.2 hPa NNE 1.6 km/h 8.0 km/h 95% 0.0 mm 591.00 W/m2
11:25 11.8 °C 11.0 °C 1023.2 hPa North 4.8 km/h 8.0 km/h 95% 0.0 mm 501.00 W/m2
11:30 12.0 °C 11.1 °C 1023.0 hPa Calm   8.0 km/h 94% 0.0 mm 505.00 W/m2
11:35 12.1 °C 11.2 °C 1023.0 hPa NNW 4.8 km/h 9.7 km/h 94% 0.0 mm 505.00 W/m2
11:40 12.3 °C 11.0 °C 1022.9 hPa Calm   4.8 km/h 92% 0.0 mm 408.00 W/m2
11:45 12.4 °C 11.2 °C 1022.8 hPa Calm   3.2 km/h 92% 0.0 mm 327.00 W/m2
11:50 12.5 °C 11.1 °C 1022.8 hPa NNW 3.2 km/h 8.0 km/h 91% 0.0 mm 611.00 W/m2
11:55 12.7 °C 11.1 °C 1022.6 hPa North 1.6 km/h 4.8 km/h 90% 0.0 mm 517.00 W/m2
12:00 12.8 °C 10.9 °C 1022.6 hPa Calm   4.8 km/h 88% 0.0 mm 470.00 W/m2
12:05 13.1 °C 10.7 °C 1022.5 hPa North 1.6 km/h 8.0 km/h 86% 0.0 mm 621.00 W/m2
12:10 13.3 °C 10.7 °C 1022.3 hPa Calm   8.0 km/h 84% 0.0 mm 436.00 W/m2
12:15 13.5 °C 10.5 °C 1022.2 hPa North 3.2 km/h 9.7 km/h 82% 0.0 mm 445.00 W/m2
12:20 13.7 °C 10.5 °C 1022.1 hPa Calm   8.0 km/h 81% 0.0 mm 494.00 W/m2
12:25 13.9 °C 10.5 °C 1022.1 hPa NNE 1.6 km/h 8.0 km/h 80% 0.0 mm 461.00 W/m2
12:30 14.1 °C 10.7 °C 1021.9 hPa NE 3.2 km/h 8.0 km/h 80% 0.0 mm 574.00 W/m2
12:35 14.2 °C 10.7 °C 1021.7 hPa Calm   8.0 km/h 79% 0.0 mm 584.00 W/m2
12:40 14.4 °C 10.5 °C 1021.6 hPa North 1.6 km/h 4.8 km/h 77% 0.0 mm 609.00 W/m2
12:45 14.7 °C 10.4 °C 1021.6 hPa NNE 3.2 km/h 9.7 km/h 76% 0.0 mm 635.00 W/m2
12:50 14.8 °C 10.4 °C 1021.5 hPa NE 3.2 km/h 9.7 km/h 75% 0.0 mm 535.00 W/m2
12:55 15.0 °C 10.8 °C 1021.3 hPa NE 3.2 km/h 6.4 km/h 76% 0.0 mm 535.00 W/m2
Juneau County Weather
Compliments of Weather Underground - 2 mb